Time;durP1;ratioP1;P1;durP2;ratioP2;P2;SDS_P1;SDS_P2;PMS_P1;PMS_P2;Temp;Humidity;BMP_temperature;BMP_pressure;BME280_temperature;BME280_humidity;BME280_pressure;Samples;Min_cycle;Max_cycle;Signal;HPM_P1;HPM_P2
2022/03/01 00:00:43;;;;;;;16.65;8.35;;;-4.90;1.00;;;-4.70;85.56;101119.44;5017895;27;116066;-86
2022/03/01 00:03:12;;;;;;;17.70;8.88;;;-4.90;1.00;;;-4.67;85.44;101122.75;5034675;27;129473;-84
2022/03/01 00:06:04;;;;;;;18.40;9.35;;;-4.90;1.00;;;-4.68;85.41;101121.09;5018230;27;128762;-86
2022/03/01 00:08:59;;;;;;;21.17;8.30;;;-4.90;1.00;;;-4.76;85.15;101108.72;5067607;27;118874;-85
2022/03/01 00:11:46;;;;;;;16.20;8.50;;;-4.90;1.00;;;-4.74;84.57;101112.81;5052219;27;114785;-83
2022/03/01 00:18:08;;;;;;;19.33;7.90;;;-5.00;1.00;;;-4.78;84.53;101105.41;5051656;27;129235;-86
2022/03/01 00:20:49;;;;;;;17.27;7.72;;;-5.00;1.00;;;-4.83;84.72;101102.44;5050487;27;118323;-87
2022/03/01 00:23:27;;;;;;;17.03;7.83;;;-5.00;1.00;;;-4.82;85.07;101102.25;5066837;27;114749;-84
2022/03/01 00:25:57;;;;;;;17.30;8.52;;;-5.10;1.00;;;-4.83;85.22;101108.59;5035946;27;130072;-85
2022/03/01 00:28:38;;;;;;;16.38;8.25;;;-5.10;1.00;;;-4.89;85.81;101103.97;5053012;27;128691;-86
2022/03/01 00:34:48;;;;;;;21.67;9.07;;;-5.00;1.00;;;-4.87;85.52;101101.97;5051819;27;113294;-86
2022/03/01 00:37:21;;;;;;;20.15;9.57;;;-5.00;1.00;;;-4.84;85.71;101101.63;5051302;27;130136;-84
2022/03/01 00:43:06;;;;;;;21.30;9.75;;;-4.90;1.00;;;-4.80;85.32;101096.81;5036023;27;117316;-86
2022/03/01 00:46:09;;;;;;;19.27;9.95;;;-5.00;1.00;;;-4.86;85.51;101098.31;5036809;27;115157;-85
2022/03/01 00:48:50;;;;;;;19.27;8.77;;;-5.00;1.00;;;-4.88;85.64;101101.16;5049102;27;129637;-84
2022/03/01 00:51:24;;;;;;;20.70;9.30;;;-5.10;1.00;;;-4.85;85.41;101099.16;5072625;27;127702;-85
2022/03/01 00:54:05;;;;;;;17.40;8.73;;;-5.10;1.00;;;-4.87;85.83;101105.44;5073246;27;117123;-84
2022/03/01 00:56:42;;;;;;;22.90;11.15;;;-5.20;1.00;;;-4.88;86.21;101095.00;5056340;27;113957;-84
2022/03/01 00:59:55;;;;;;;19.65;9.40;;;-5.10;1.00;;;-4.90;86.12;101094.34;5021051;27;129425;-85
2022/03/01 01:03:01;;;;;;;20.75;8.57;;;-5.10;1.00;;;-4.95;86.09;101088.75;5041389;27;130098;-87
2022/03/01 01:05:36;;;;;;;20.85;9.80;;;-5.10;1.00;;;-4.95;85.99;101083.47;5035929;27;116811;-86
2022/03/01 01:08:11;;;;;;;16.67;9.20;;;-5.10;1.00;;;-4.97;86.28;101085.44;5066296;27;115219;-84
2022/03/01 01:10:47;;;;;;;20.75;8.50;;;-5.10;1.00;;;-4.96;85.89;101081.78;5050813;27;129900;-85
2022/03/01 01:13:17;;;;;;;17.13;8.20;;;-5.10;1.00;;;-5.01;86.88;101086.78;5050751;27;128930;-84
2022/03/01 01:15:47;;;;;;;17.55;8.55;;;-5.10;1.00;;;-5.02;86.46;101077.19;5051239;27;118294;-87
2022/03/01 01:18:27;;;;;;;20.02;9.60;;;-5.20;1.00;;;-5.03;86.23;101071.06;5001324;27;112804;-83
2022/03/01 01:20:59;;;;;;;21.73;9.32;;;-5.20;1.00;;;-5.05;86.69;101078.34;5035729;27;129645;-84
2022/03/01 01:23:30;;;;;;;21.02;10.52;;;-5.30;1.00;;;-5.10;87.41;101076.19;5035373;27;129481;-84
2022/03/01 01:26:22;;;;;;;21.23;10.18;;;-5.30;1.00;;;-5.19;87.54;101082.50;5020025;27;117353;-85
2022/03/01 01:29:01;;;;;;;22.58;10.10;;;-5.30;1.00;;;-5.19;87.48;101077.22;5049563;27;116176;-84
2022/03/01 01:31:33;;;;;;;26.92;12.18;;;-5.40;1.00;;;-5.19;87.88;101071.91;5049902;27;129605;-84
2022/03/01 01:34:05;;;;;;;19.13;9.88;;;-5.50;1.00;;;-5.24;87.82;101074.25;5051524;27;127268;-85
2022/03/01 01:36:35;;;;;;;23.27;10.20;;;-5.50;1.00;;;-5.27;88.00;101074.59;5034893;27;118009;-83
2022/03/01 01:39:22;;;;;;;22.42;9.40;;;-5.50;1.00;;;-5.28;87.88;101072.97;5034162;27;115194;-84
2022/03/01 01:41:51;;;;;;;;;;;-5.70;1.00;;;-5.37;87.71;101071.31;5050695;27;130573;-84
2022/03/01 01:44:20;;;;;;;21.05;9.85;;;-5.80;1.00;;;-5.31;87.96;101073.28;5049847;27;128987;-83
2022/03/01 01:47:09;;;;;;;24.02;10.60;;;-5.80;1.00;;;-5.37;88.24;101063.38;5050677;27;117743;-84
2022/03/01 01:49:42;;;;;;;23.67;10.18;;;-5.80;1.00;;;-5.37;88.76;101072.13;5029406;27;114977;-83
2022/03/01 01:52:13;;;;;;;21.45;10.88;;;-5.80;1.00;;;-5.42;89.30;101067.34;5033551;27;129589;-83
2022/03/01 01:54:44;;;;;;;24.13;11.10;;;-5.80;1.00;;;-5.40;90.01;101071.66;5050403;27;129080;-83
2022/03/01 01:57:18;;;;;;;22.65;10.68;;;-5.80;1.00;;;-5.43;89.99;101065.69;5033850;27;117998;-83
2022/03/01 01:59:52;;;;;;;25.25;11.20;;;-5.80;1.00;;;-5.46;90.33;101060.72;5052187;27;115602;-86
2022/03/01 02:02:39;;;;;;;20.90;11.07;;;-5.80;1.00;;;-5.49;90.21;101063.69;5069113;27;128553;-85
2022/03/01 02:05:25;;;;;;;26.65;10.68;;;-5.80;1.00;;;-5.50;90.36;101064.72;5067513;27;129364;-83
2022/03/01 02:07:59;;;;;;;22.98;10.80;;;-5.80;1.00;;;-5.53;90.69;101075.63;5054658;27;118240;-85
2022/03/01 02:13:18;;;;;;;;;;;-5.80;1.00;;;-5.68;91.70;101061.44;5062628;27;127995;-84
2022/03/01 02:16:30;;;;;;;30.58;10.07;;;-5.80;1.00;;;-5.66;91.60;101070.81;5059223;27;129037;-87
2022/03/01 02:19:38;;;;;;;27.80;10.23;;;-5.80;1.00;;;-5.67;91.82;101063.06;5074585;27;118439;-88
2022/03/01 02:25:28;;;;;;;17.77;9.30;;;-5.80;1.00;;;-5.66;91.86;101067.38;5088194;27;130481;-83
2022/03/01 02:28:33;;;;;;;20.52;9.68;;;-5.80;1.00;;;-5.71;92.01;101067.03;5071643;27;128397;-85
2022/03/01 02:41:51;;;;;;;20.08;10.35;;;-5.90;1.00;;;-5.68;91.46;101050.84;5067340;27;129881;-87
2022/03/01 02:48:00;;;;;;;;;;;-5.90;1.00;;;-5.83;91.79;101050.69;5042261;27;114637;-86
2022/03/01 02:50:44;;;;;;;24.38;10.38;;;-6.00;1.00;;;-5.72;91.70;101044.22;5053950;27;129649;-88
2022/03/01 02:56:26;;;;;;;19.33;8.82;;;-6.10;1.00;;;-5.77;92.28;101048.19;5052190;27;119505;-87
2022/03/01 02:59:08;;;;;;;22.10;9.75;;;-6.00;1.00;;;-5.76;92.49;101041.09;5057673;27;114296;-86
2022/03/01 03:02:09;;;;;;;20.70;9.57;;;-6.00;1.00;;;-5.79;92.63;101038.78;5023075;27;129887;-87
2022/03/01 03:04:42;;;;;;;16.73;9.25;;;-6.00;1.00;;;-5.79;92.72;101029.03;5036109;27;128744;-86
2022/03/01 03:07:17;;;;;;;19.55;9.55;;;-6.00;1.00;;;-5.80;93.18;101037.13;5036436;27;118640;-84
2022/03/01 03:12:37;;;;;;;17.90;9.48;;;-6.10;1.00;;;-5.86;93.63;101038.63;5035877;27;129533;-87
2022/03/01 03:15:18;;;;;;;23.17;9.70;;;-6.00;1.00;;;-5.82;93.72;101026.72;5018875;27;128642;-86
2022/03/01 03:17:49;;;;;;;18.98;9.55;;;-6.00;1.00;;;-5.82;94.11;101029.34;5053262;27;118364;-86
2022/03/01 03:20:35;;;;;;;23.70;9.90;;;-6.00;1.00;;;-5.86;93.52;101028.06;5053764;27;114202;-86
2022/03/01 03:23:06;;;;;;;20.58;9.52;;;-6.10;1.00;;;-5.82;93.75;101028.53;5036025;27;129546;-86
2022/03/01 03:25:35;;;;;;;23.02;10.38;;;-6.10;1.00;;;-5.85;93.46;101023.56;5018669;27;128589;-84
2022/03/01 03:28:06;;;;;;;19.00;9.68;;;-6.10;1.00;;;-5.86;93.90;101028.06;5034966;27;118177;-83
2022/03/01 03:30:35;;;;;;;25.23;9.98;;;-6.10;1.00;;;-5.85;93.46;101018.28;5002555;27;114599;-84
2022/03/01 03:33:05;;;;;;;18.30;9.40;;;-6.10;1.00;;;-5.89;94.41;101011.66;5031800;27;129554;-83
2022/03/01 03:35:34;;;;;;;21.08;10.13;;;-6.10;1.70;;;-5.89;94.76;101015.16;5051623;27;129381;-82
2022/03/01 03:38:03;;;;;;;23.13;9.65;;;-6.10;2.50;;;-5.88;94.74;101008.03;5032316;27;118769;-83
2022/03/01 03:40:32;;;;;;;24.60;9.38;;;-6.10;2.40;;;-5.88;94.73;101014.16;5035311;27;115180;-82
2022/03/01 03:43:01;;;;;;;18.20;8.80;;;-6.10;3.70;;;-5.83;94.54;101005.72;5051508;27;129098;-82
2022/03/01 03:45:32;;;;;;;21.48;10.50;;;-6.00;4.70;;;-5.82;94.78;101007.38;5034326;27;128803;-83
2022/03/01 03:48:01;;;;;;;18.48;9.13;;;-6.10;3.80;;;-5.83;94.23;100995.13;5016689;27;118243;-83
2022/03/01 03:50:30;;;;;;;21.52;9.13;;;-6.10;4.40;;;-5.79;94.47;101002.56;5003122;27;113212;-84
2022/03/01 03:52:59;;;;;;;22.25;9.82;;;-6.10;6.60;;;-5.80;94.69;100998.31;5034531;27;129145;-83
2022/03/01 03:55:27;;;;;;;17.98;9.55;;;-6.10;5.70;;;-5.82;94.09;100997.63;5034832;27;128830;-84
2022/03/01 03:57:57;;;;;;;20.52;10.65;;;-6.10;5.80;;;-5.80;94.41;100990.38;5016623;27;117249;-83
2022/03/01 04:00:25;;;;;;;19.75;9.05;;;-6.20;6.80;;;-5.82;94.01;100987.03;5011418;28;115145;-84
2022/03/01 04:02:56;;;;;;;18.85;9.35;;;-6.20;6.90;;;-5.86;94.11;100991.03;4995425;27;130129;-84
2022/03/01 04:05:25;;;;;;;17.38;9.30;;;-6.20;7.40;;;-5.86;94.66;101000.75;4997634;27;128602;-84
2022/03/01 04:07:55;;;;;;;18.55;8.73;;;-6.20;8.70;;;-5.89;94.17;100991.38;5013593;27;117058;-84
2022/03/01 04:10:24;;;;;;;18.40;9.05;;;-6.20;10.00;;;-5.85;94.44;100991.84;5014664;27;114926;-84
2022/03/01 04:12:55;;;;;;;17.27;9.38;;;-6.20;9.50;;;-5.87;94.54;100989.38;5014820;27;129359;-87
2022/03/01 04:15:27;;;;;;;21.40;9.80;;;-6.20;10.50;;;-5.89;94.32;100986.06;5015303;27;129085;-87
2022/03/01 04:21:05;;;;;;;17.73;9.02;;;-6.20;10.40;;;-5.90;94.59;100979.13;5017689;27;114458;-87
2022/03/01 04:23:40;;;;;;;17.05;8.63;;;-6.30;11.70;;;-5.90;94.88;100984.41;5014647;27;129735;-89
2022/03/01 04:26:23;;;;;;;19.77;9.40;;;-6.30;11.40;;;-5.92;93.94;100981.13;5048874;27;128636;-85
2022/03/01 04:28:52;;;;;;;19.58;10.07;;;-6.30;11.10;;;-5.92;94.77;100982.91;5031577;27;117751;-87
2022/03/01 04:31:24;;;;;;;20.33;8.80;;;-6.30;10.90;;;-5.90;94.53;100979.13;5016316;27;115164;-89
2022/03/01 04:33:59;;;;;;;16.30;8.32;;;-6.40;11.80;;;-5.90;94.41;100970.38;5020140;27;128591;-85
2022/03/01 04:36:56;;;;;;;14.85;7.93;;;-6.40;14.70;;;-5.94;94.10;100972.50;5035382;27;129066;-89
2022/03/01 04:39:36;;;;;;;16.92;8.75;;;-6.40;14.00;;;-5.91;94.40;100977.47;5019746;27;117983;-88
2022/03/01 04:46:37;;;;;;;19.52;9.27;;;-6.50;14.50;;;-5.95;93.53;100976.16;5058526;27;129682;-88
2022/03/01 04:49:46;;;;;;;21.38;11.45;;;-6.60;14.50;;;-5.99;93.95;100975.69;5049746;27;129984;-87
2022/03/01 04:55:59;;;;;;;19.27;10.45;;;-6.40;18.90;;;-5.96;95.18;100985.91;5023937;27;115037;-88
2022/03/01 04:58:48;;;;;;;19.55;10.88;;;-6.30;20.50;;;-5.91;94.70;100966.88;5009707;27;130580;-86
2022/03/01 05:01:38;;;;;;;19.65;10.48;;;-6.30;20.40;;;-5.88;94.91;100977.13;5034918;27;128282;-88
2022/03/01 05:04:07;;;;;;;19.92;10.02;;;-6.20;20.10;;;-5.84;94.43;100982.94;4997582;27;118476;-85
2022/03/01 05:06:44;;;;;;;22.23;10.23;;;-6.30;20.40;;;-5.84;94.60;100973.16;5015124;27;115206;-88
2022/03/01 05:09:13;;;;;;;25.40;12.40;;;-6.30;20.60;;;-5.73;93.79;100979.09;5013698;27;130682;-87
2022/03/01 05:11:42;;;;;;;24.83;10.65;;;-6.20;20.00;;;-5.67;93.74;100983.72;5032272;27;128388;-88
2022/03/01 05:14:15;;;;;;;21.58;9.93;;;-6.20;19.90;;;-5.60;93.10;100974.13;5053497;27;116976;-86
2022/03/01 05:16:45;;;;;;;20.17;10.98;;;-6.20;19.20;;;-5.50;92.61;100974.75;5036923;27;113556;-87
2022/03/01 05:19:17;;;;;;;22.17;11.32;;;-6.20;18.90;;;-5.41;92.60;100972.91;5036013;27;128144;-89
2022/03/01 05:21:55;;;;;;;20.85;10.23;;;-6.20;18.50;;;-5.36;91.74;100975.88;5018207;27;129256;-87
2022/03/01 05:27:25;;;;;;;24.52;11.18;;;-6.10;19.00;;;-5.23;90.97;100972.69;5050332;27;116393;-87
2022/03/01 05:30:00;;;;;;;23.48;10.98;;;-6.10;18.10;;;-5.09;90.63;100979.91;5050311;27;129941;-86
2022/03/01 05:32:31;;;;;;;22.63;12.80;;;-6.00;18.10;;;-5.01;90.56;100970.28;5049111;27;129075;-87
2022/03/01 05:35:00;;;;;;;21.42;13.40;;;-6.00;18.30;;;-4.96;90.79;100981.16;5049524;27;118938;-88
2022/03/01 05:37:32;;;;;;;20.38;11.38;;;-5.80;18.00;;;-4.93;89.94;100976.34;5032775;27;115194;-87
2022/03/01 05:40:04;;;;;;;20.40;9.68;;;-5.70;17.50;;;-4.83;90.20;100981.44;5031990;27;129746;-86
2022/03/01 05:42:33;;;;;;;22.27;8.88;;;-5.60;15.40;;;-4.75;89.96;100986.69;5032870;27;129603;-86
2022/03/01 05:45:05;;;;;;;18.20;9.07;;;-5.50;13.10;;;-4.60;89.74;100993.88;5033060;27;118616;-90
2022/03/01 05:47:37;;;;;;;18.52;8.75;;;-5.40;10.10;;;-4.53;88.66;100984.25;5060299;27;115090;-88
2022/03/01 05:50:09;;;;;;;26.55;10.93;;;-5.30;4.80;;;-4.42;88.46;100993.63;5014807;27;129561;-88
2022/03/01 05:55:56;;;;;;;21.98;12.48;;;-5.10;1.00;;;-4.10;86.96;100991.72;5051362;27;119128;-89
2022/03/01 05:58:28;;;;;;;19.63;11.23;;;-5.00;1.00;;;-3.89;85.92;100985.75;5033887;27;116068;-86
2022/03/01 06:01:02;;;;;;;;;;;-4.90;1.00;;;-3.93;85.42;100992.41;5018939;27;129269;-87
2022/03/01 06:03:33;;;;;;;22.70;10.07;;;-4.80;1.00;;;-3.81;85.47;100983.00;5047041;27;129054;-87
2022/03/01 06:06:03;;;;;;;17.30;9.23;;;-4.80;1.00;;;-3.67;84.84;100990.16;5015453;27;117770;-88
2022/03/01 06:08:35;;;;;;;20.55;10.43;;;-4.70;1.00;;;-3.48;84.21;100990.63;5016562;27;114020;-88
2022/03/01 06:11:06;;;;;;;16.73;9.05;;;-4.60;1.00;;;-3.32;83.40;101002.91;4999097;27;129369;-88
2022/03/01 06:13:37;;;;;;;22.10;12.00;;;-4.50;1.00;;;-3.23;82.78;101003.66;5018058;27;129623;-86
2022/03/01 06:16:20;;;;;;;17.77;9.93;;;-4.40;1.00;;;-3.28;82.31;101005.00;4987411;27;119256;-86
2022/03/01 06:18:50;;;;;;;18.73;9.88;;;-4.30;1.00;;;-3.19;82.64;100999.63;5054129;27;115233;-87
2022/03/01 06:21:28;;;;;;;16.92;8.98;;;-4.20;1.00;;;-3.05;81.06;101004.09;5002792;27;129626;-86
2022/03/01 06:24:09;;;;;;;18.08;10.25;;;-4.10;1.00;;;-2.93;80.79;100999.97;5052951;27;128978;-87
2022/03/01 06:26:42;;;;;;;25.52;14.55;;;-4.00;1.00;;;-2.73;80.56;100994.06;5035594;27;117632;-88
2022/03/01 06:29:23;;;;;;;20.65;11.00;;;-3.90;1.00;;;-2.51;79.75;101005.53;5053607;27;115129;-88
2022/03/01 06:32:11;;;;;;;16.83;9.60;;;-3.70;1.00;;;-2.30;78.90;101003.94;5018435;27;128438;-86
2022/03/01 06:34:52;;;;;;;19.02;9.15;;;-3.60;1.00;;;-1.99;78.35;101000.94;5035388;27;129005;-87
2022/03/01 06:37:31;;;;;;;17.57;9.00;;;-3.40;1.00;;;-1.41;76.75;100999.94;5052905;27;118191;-87
2022/03/01 06:46:48;;;;;;;20.45;11.40;;;-2.60;1.00;;;-0.93;72.98;101002.66;5051070;27;129637;-88
2022/03/01 06:49:37;;;;;;;19.38;10.07;;;-2.70;1.00;;;-0.91;72.86;101008.59;5056368;27;116718;-87
2022/03/01 06:52:18;;;;;;;21.15;12.63;;;-2.60;1.00;;;-0.80;72.41;101004.53;5021746;27;116074;-86
2022/03/01 06:55:30;;;;;;;20.48;11.30;;;-2.60;1.00;;;-0.78;72.10;101008.66;5056958;27;130112;-88
2022/03/01 08:50:38;;;;;;;20.73;8.07;;;0.80;1.00;;;2.61;59.72;100928.47;5070827;27;1763252;-87
2022/03/01 08:53:07;;;;;;;12.85;7.32;;;1.20;1.00;;;2.53;59.21;100926.09;5074908;27;113476;-87
2022/03/01 08:55:36;;;;;;;18.70;9.25;;;1.20;1.00;;;2.33;60.04;100921.75;5088245;27;129063;-87
2022/03/01 08:58:05;;;;;;;17.75;9.60;;;1.30;1.00;;;2.95;59.40;100923.53;5071079;27;128791;-87
2022/03/01 09:00:34;;;;;;;18.92;9.90;;;1.60;1.00;;;2.86;58.97;100915.75;5071562;27;118129;-87
2022/03/01 09:03:02;;;;;;;21.38;10.45;;;1.70;1.00;;;3.26;58.26;100913.59;5071485;27;113491;-88
2022/03/01 09:05:35;;;;;;;18.17;8.82;;;1.80;1.00;;;2.46;58.41;100900.16;5056764;27;128936;-85
2022/03/01 09:08:12;;;;;;;21.83;8.60;;;1.60;1.00;;;2.73;58.77;100899.84;5062075;27;129204;-87
2022/03/01 09:10:42;;;;;;;19.23;7.90;;;1.70;1.00;;;2.46;59.83;100894.81;5071560;27;117945;-88
2022/03/01 09:16:27;;;;;;;19.90;8.87;;;1.90;1.00;;;2.84;59.53;100896.41;5070227;27;129146;-85
2022/03/01 09:26:11;;;;;;;21.35;8.73;;;2.10;1.00;;;2.93;58.00;100904.13;5109010;27;113949;-88
2022/03/01 09:32:19;;;;;;;23.70;8.65;;;2.20;1.00;;;3.93;56.43;100898.09;5092762;27;128681;-87
2022/03/01 09:34:51;;;;;;;16.67;8.25;;;2.60;1.00;;;4.40;55.45;100904.53;5070900;27;117032;-86
2022/03/01 09:37:19;;;;;;;18.60;8.18;;;2.90;1.00;;;4.19;56.22;100893.34;5070962;27;112095;-85
2022/03/01 09:39:49;;;;;;;22.67;8.75;;;2.80;1.00;;;4.05;55.28;100902.66;5066835;27;128754;-85
2022/03/01 09:43:07;;;;;;;17.75;8.73;;;2.70;1.00;;;3.94;55.04;100898.91;5050141;27;127831;-86
2022/03/01 09:48:53;;;;;;;11.95;6.93;;;2.90;1.00;;;4.39;54.11;100889.44;5066903;27;114568;-87
2022/03/01 09:54:39;;;;;;;16.13;7.88;;;3.00;1.00;;;4.18;54.40;100878.25;5039740;27;127894;-86
2022/03/01 09:57:28;;;;;;;18.98;10.23;;;3.00;1.00;;;4.50;54.13;100880.53;5026957;27;118199;-85
2022/03/01 10:03:41;;;;;;;12.68;6.68;;;3.40;1.00;;;4.29;52.97;100873.91;5052495;27;129906;-87
2022/03/01 10:06:46;;;;;;;16.13;6.45;;;3.40;1.00;;;3.88;53.08;100865.75;5050570;27;128655;-86
2022/03/01 10:13:24;;;;;;;13.18;6.30;;;3.20;1.00;;;5.02;52.53;100856.28;5071496;27;113655;-86
2022/03/01 10:16:02;;;;;;;13.88;7.07;;;3.30;1.00;;;5.01;51.90;100860.00;5036066;27;129190;-86
2022/03/01 10:18:36;;;;;;;19.10;8.73;;;3.50;1.00;;;4.84;52.84;100845.69;5052107;27;128898;-87
2022/03/01 10:21:09;;;;;;;29.92;14.88;;;3.50;1.00;;;4.68;51.34;100856.16;5036064;27;117683;-87
2022/03/01 10:23:50;;;;;;;32.53;14.80;;;3.60;1.00;;;4.95;50.54;100834.06;5035811;27;115115;-86
2022/03/01 10:26:21;;;;;;;38.13;16.73;;;3.70;1.00;;;4.65;51.34;100845.06;5035355;27;129101;-85
2022/03/01 10:28:52;;;;;;;26.52;12.23;;;3.70;1.00;;;5.04;51.16;100838.00;5035652;27;129303;-86
2022/03/01 10:31:24;;;;;;;13.25;6.95;;;3.80;1.00;;;5.24;51.26;100831.34;5052267;27;117580;-87
2022/03/01 10:34:02;;;;;;;24.02;11.38;;;3.90;1.00;;;4.14;53.05;100831.41;5035811;27;113013;-86
2022/03/01 10:36:33;;;;;;;16.30;8.35;;;3.50;1.00;;;4.41;52.76;100829.03;5019093;27;130072;-88
2022/03/01 10:39:06;;;;;;;17.40;7.95;;;3.70;1.00;;;4.70;52.75;100820.16;5034738;27;129306;-85
2022/03/01 10:41:37;;;;;;;23.48;10.35;;;3.80;1.00;;;5.23;51.78;100821.66;5035543;27;117888;-87
2022/03/01 10:44:13;;;;;;;18.70;7.45;;;4.10;1.00;;;5.10;50.88;100824.66;5034551;27;115504;-86
2022/03/01 10:46:46;;;;;;;12.05;7.07;;;4.00;1.00;;;5.59;50.51;100814.13;5038518;27;129965;-86
2022/03/01 10:49:27;;;;;;;13.30;6.20;;;4.20;1.00;;;5.62;49.01;100810.94;5040192;27;128685;-85
2022/03/01 10:51:59;;;;;;;12.88;7.05;;;4.30;1.00;;;5.88;48.97;100814.84;5053895;27;118023;-87
2022/03/01 10:54:30;;;;;;;13.38;8.15;;;4.40;1.00;;;5.72;48.30;100811.13;5037124;27;113074;-87
2022/03/01 10:57:04;;;;;;;10.48;5.63;;;4.40;1.00;;;6.35;47.23;100808.22;5036276;27;129143;-86
2022/03/01 10:59:35;;;;;;;12.13;6.43;;;4.70;1.00;;;5.96;47.57;100813.59;5024194;27;128454;-86
2022/03/01 11:02:09;;;;;;;8.30;4.60;;;4.70;1.00;;;5.29;48.18;100807.22;5053161;27;117790;-86
2022/03/01 11:04:40;;;;;;;9.35;4.82;;;4.50;1.00;;;5.61;47.54;100800.44;5071775;27;113108;-87
2022/03/01 11:07:13;;;;;;;9.93;4.55;;;4.50;1.00;;;5.82;47.18;100798.84;5036109;27;129084;-86
2022/03/01 11:09:44;;;;;;;10.77;4.50;;;4.60;1.00;;;5.53;47.91;100790.88;5037658;27;128677;-86
2022/03/01 11:12:21;;;;;;;9.57;4.40;;;4.60;1.00;;;5.50;47.75;100786.81;5054678;27;118629;-87
2022/03/01 11:15:06;;;;;;;11.20;4.60;;;4.60;1.00;;;5.64;47.46;100783.78;5037810;27;112874;-86
2022/03/01 11:17:48;;;;;;;11.73;4.95;;;4.70;1.00;;;5.74;47.42;100786.63;5028636;27;128767;-85
2022/03/01 11:20:27;;;;;;;9.73;4.97;;;4.80;1.00;;;5.25;47.98;100779.16;5051981;27;128563;-84
2022/03/01 11:23:02;;;;;;;7.93;4.75;;;4.60;1.00;;;5.25;48.47;100779.16;5057097;27;117479;-87
2022/03/01 11:25:40;;;;;;;19.65;4.55;;;4.60;1.00;;;5.44;47.94;100781.59;5045413;27;111808;-86
2022/03/01 11:31:37;;;;;;;9.45;4.60;;;4.80;1.00;;;5.26;48.73;100775.41;5059702;27;128461;-85
2022/03/01 11:34:19;;;;;;;8.70;4.28;;;4.60;1.00;;;5.37;48.56;100771.78;5053720;27;117958;-84
2022/03/01 11:37:33;;;;;;;7.13;3.85;;;4.70;1.00;;;4.92;48.72;100775.38;5072862;27;112149;-86
2022/03/01 11:50:23;;;;;;;6.90;2.78;;;5.10;1.00;;;5.35;48.63;100756.97;5053634;27;111990;-85
2022/03/01 11:56:34;;;;;;;8.10;3.50;;;4.90;1.00;;;5.66;47.65;100752.84;5048676;27;130192;-86
2022/03/01 11:59:10;;;;;;;8.52;3.33;;;5.00;1.00;;;5.96;46.81;100748.13;5032672;27;118129;-87
2022/03/01 12:02:12;;;;;;;7.57;3.30;;;5.10;1.00;;;5.96;47.96;100746.25;5016451;27;112572;-88
2022/03/01 12:09:08;;;;;;;6.22;2.90;;;5.20;1.00;;;5.26;47.56;100740.41;5049472;27;128066;-86
2022/03/01 12:12:26;;;;;;;7.95;2.90;;;4.90;1.00;;;5.42;47.86;100735.25;5042846;27;119172;-86
2022/03/01 12:28:13;;;;;;;17.02;10.70;;;5.00;1.00;;;5.75;46.87;100729.00;5012288;28;112810;-87
2022/03/01 12:34:28;;;;;;;7.38;4.32;;;5.00;1.00;;;5.17;47.51;100718.50;5026076;28;129030;-86
2022/03/01 12:37:41;;;;;;;7.50;3.67;;;4.80;1.00;;;5.07;48.42;100704.06;5030481;28;118845;-87
2022/03/01 12:51:00;;;;;;;15.55;3.58;;;4.80;1.00;;;5.21;48.34;100691.88;5006832;28;118302;-87
2022/03/01 12:57:14;;;;;;;11.25;4.50;;;4.80;1.00;;;5.24;50.36;100688.72;5008795;28;130306;-87
2022/03/01 13:04:00;;;;;;;6.68;3.35;;;5.00;1.00;;;5.44;48.70;100679.28;5010979;28;119078;-88
2022/03/01 13:26:01;;;;;;;5.70;2.90;;;5.00;1.00;;;5.28;48.83;100659.41;5032356;28;129474;-88
2022/03/01 13:28:51;;;;;;;9.25;3.50;;;5.00;1.00;;;5.08;49.14;100659.91;5003433;28;118376;-87
2022/03/01 13:31:24;;;;;;;6.05;3.22;;;4.80;1.00;;;5.15;48.99;100661.38;5004690;28;112973;-86
2022/03/01 13:34:03;;;;;;;5.15;2.63;;;4.80;1.00;;;5.26;49.40;100654.28;5002171;28;129048;-88
2022/03/01 13:36:43;;;;;;;6.45;3.30;;;4.90;1.00;;;5.09;49.07;100656.19;5032582;28;128220;-87
2022/03/01 13:39:24;;;;;;;7.78;3.67;;;4.90;1.00;;;5.04;49.86;100649.66;5016242;28;118100;-86
2022/03/01 13:42:01;;;;;;;10.88;3.97;;;4.80;1.00;;;5.19;49.36;100651.75;5002040;28;113161;-86
2022/03/01 13:44:35;;;;;;;7.80;3.08;;;4.80;1.00;;;5.40;49.53;100650.16;5030049;28;129053;-88
2022/03/01 13:47:13;;;;;;;7.80;3.40;;;4.90;1.00;;;5.57;48.67;100662.78;5031185;28;130466;-84
2022/03/01 13:49:44;;;;;;;;;;;5.00;1.00;;;5.34;49.34;100658.41;5015293;28;118081;-87
2022/03/01 13:52:21;;;;;;;6.72;3.00;;;4.90;1.00;;;5.36;48.84;100646.34;5030789;28;114652;-86
2022/03/01 13:55:16;;;;;;;9.15;3.67;;;4.90;1.00;;;5.23;49.82;100644.00;4995960;28;128959;-87
2022/03/01 13:57:49;;;;;;;8.05;3.53;;;4.90;1.00;;;5.00;49.59;100643.16;5012647;28;129619;-86
2022/03/01 14:00:24;;;;;;;8.18;3.58;;;4.80;1.00;;;4.77;50.46;100637.94;4980929;28;117049;-84
2022/03/01 14:02:58;;;;;;;7.53;3.40;;;4.70;1.00;;;4.83;50.47;100636.94;4995476;28;113316;-87
2022/03/01 14:05:30;;;;;;;5.13;3.13;;;4.70;1.00;;;4.86;50.69;100636.47;5009479;28;128777;-86
2022/03/01 14:08:06;;;;;;;13.45;3.85;;;4.70;1.00;;;5.07;50.09;100634.09;4995419;28;128620;-87
2022/03/01 14:10:37;;;;;;;7.25;3.78;;;4.70;1.00;;;4.99;50.77;100628.06;4993202;28;119103;-86
2022/03/01 14:13:10;;;;;;;6.50;3.50;;;4.70;1.00;;;5.17;50.95;100626.16;5010329;28;114195;-85
2022/03/01 14:15:54;;;;;;;8.55;3.50;;;4.80;1.00;;;5.24;50.48;100623.31;4993966;28;128126;-84
2022/03/01 14:18:59;;;;;;;6.95;3.53;;;4.70;1.00;;;5.20;50.19;100614.91;4999283;28;128941;-88
2022/03/01 14:21:52;;;;;;;9.57;3.50;;;4.70;1.00;;;5.29;50.41;100618.78;5000170;28;118180;-86
2022/03/01 14:35:41;;;;;;;8.82;3.47;;;4.60;1.00;;;4.83;51.29;100599.28;4994071;28;119692;-85
2022/03/01 14:38:12;;;;;;;7.25;3.45;;;4.50;1.00;;;5.02;51.38;100597.97;4995757;28;114694;-87
2022/03/01 14:40:46;;;;;;;7.35;3.22;;;4.50;1.00;;;4.94;51.77;100600.25;4966273;28;128721;-87
2022/03/01 15:07:41;;;;;;;7.47;3.10;;;4.00;1.00;;;4.19;53.48;100586.16;4991340;28;128809;-86
2022/03/01 15:14:16;;;;;;;7.88;2.75;;;3.90;1.00;;;4.15;53.93;100577.78;4980870;28;118272;-85
2022/03/01 15:21:58;;;;;;;7.43;2.92;;;3.90;1.00;;;3.81;53.59;100566.97;5000206;28;130215;-86
2022/03/01 15:25:40;;;;;;;8.80;3.03;;;3.60;1.00;;;3.61;54.07;100570.06;4993672;28;128233;-88
2022/03/01 15:28:53;;;;;;;10.18;3.03;;;3.40;1.00;;;3.62;54.51;100560.19;5018723;28;118834;-87
2022/03/01 15:35:14;;;;;;;9.02;2.80;;;3.20;1.00;;;3.43;54.56;100565.72;5004610;28;130579;-86
2022/03/01 15:38:38;;;;;;;9.05;3.08;;;3.00;1.00;;;3.27;55.19;100566.44;4981015;28;129510;-88
2022/03/01 15:41:50;;;;;;;9.63;3.17;;;2.80;1.00;;;3.20;55.52;100572.75;5012403;28;119783;-86
2022/03/01 15:55:43;;;;;;;9.13;3.83;;;2.10;1.00;;;2.56;58.46;100577.22;5011565;27;117978;-87
2022/03/01 15:58:40;;;;;;;6.65;2.83;;;2.00;1.00;;;2.43;58.61;100568.34;5023399;27;114707;-88
2022/03/01 16:02:01;;;;;;;7.60;3.33;;;1.90;1.00;;;2.19;59.17;100572.84;5021339;27;128707;-88
2022/03/01 16:04:54;;;;;;;5.55;2.70;;;1.90;1.00;;;2.08;59.79;100571.75;5039460;27;128131;-88
2022/03/01 16:07:23;;;;;;;7.55;2.80;;;1.90;1.00;;;2.02;60.29;100578.03;5018787;27;118371;-86
2022/03/01 16:13:42;;;;;;;7.70;3.58;;;1.70;1.00;;;1.86;60.50;100578.69;5010792;27;129665;-87
2022/03/01 16:17:06;;;;;;;9.55;4.78;;;1.70;1.00;;;1.79;60.83;100576.09;5049611;27;129518;-86
2022/03/01 16:24:17;;;;;;;12.40;5.70;;;1.30;1.00;;;1.53;63.11;100575.41;5072108;27;113900;-86
2022/03/01 16:27:25;;;;;;;9.07;4.75;;;1.00;1.00;;;1.28;64.70;100577.34;5068518;27;129386;-86
2022/03/01 16:31:06;;;;;;;12.40;4.63;;;0.90;1.00;;;0.99;65.76;100569.84;5045545;27;128889;-88
2022/03/01 16:41:22;;;;;;;10.02;3.25;;;0.70;1.00;;;0.76;68.31;100570.47;5045131;27;129832;-88
2022/03/01 16:44:38;;;;;;;8.00;3.88;;;0.60;1.00;;;0.74;68.06;100579.75;5019918;27;129639;-87
2022/03/01 16:47:27;;;;;;;9.57;3.35;;;0.50;1.00;;;0.71;67.09;100573.81;5033259;27;118800;-87
2022/03/01 16:49:58;;;;;;;10.32;3.35;;;0.20;1.00;;;0.74;67.07;100583.25;5035486;27;113119;-86
2022/03/01 16:52:43;;;;;;;7.90;3.20;;;0.00;1.00;;;0.63;67.68;100576.75;5038019;27;128736;-85
2022/03/01 16:55:13;;;;;;;8.50;4.28;;;-0.10;1.00;;;0.62;67.51;100585.81;5012582;28;128268;-86